sensor_id;sensor_type;location;lat;lon;timestamp;temperature;humidity
50556;DHT22;36508;52.512;13.450;2023-10-09T00:01:07;12.80;99.90
50556;DHT22;36508;52.512;13.450;2023-10-09T00:03:41;12.80;99.90
50556;DHT22;36508;52.512;13.450;2023-10-09T00:06:08;12.90;99.90
50556;DHT22;36508;52.512;13.450;2023-10-09T00:08:37;12.80;99.90
50556;DHT22;36508;52.512;13.450;2023-10-09T00:11:04;12.90;99.90
50556;DHT22;36508;52.512;13.450;2023-10-09T00:13:44;12.90;99.90
50556;DHT22;36508;52.512;13.450;2023-10-09T00:16:23;12.90;99.90
50556;DHT22;36508;52.512;13.450;2023-10-09T00:19:06;12.90;99.90
50556;DHT22;36508;52.512;13.450;2023-10-09T00:21:55;12.80;99.90
50556;DHT22;36508;52.512;13.450;2023-10-09T00:24:24;12.80;99.90
50556;DHT22;36508;52.512;13.450;2023-10-09T00:26:53;12.70;99.90
50556;DHT22;36508;52.512;13.450;2023-10-09T00:29:28;12.70;99.90
50556;DHT22;36508;52.512;13.450;2023-10-09T00:31:58;12.80;99.90
50556;DHT22;36508;52.512;13.450;2023-10-09T00:34:53;12.60;99.90
50556;DHT22;36508;52.512;13.450;2023-10-09T00:37:38;12.60;99.90
50556;DHT22;36508;52.512;13.450;2023-10-09T00:40:05;12.50;99.90
50556;DHT22;36508;52.512;13.450;2023-10-09T00:42:38;12.40;99.90
50556;DHT22;36508;52.512;13.450;2023-10-09T00:45:04;12.40;99.90
50556;DHT22;36508;52.512;13.450;2023-10-09T00:47:34;12.40;99.90
50556;DHT22;36508;52.512;13.450;2023-10-09T00:50:09;12.30;99.90
50556;DHT22;36508;52.512;13.450;2023-10-09T00:52:44;12.40;99.90
50556;DHT22;36508;52.512;13.450;2023-10-09T00:55:26;12.40;99.90
50556;DHT22;36508;52.512;13.450;2023-10-09T00:58:12;12.00;99.90
50556;DHT22;36508;52.512;13.450;2023-10-09T01:00:40;12.00;99.90
50556;DHT22;36508;52.512;13.450;2023-10-09T01:03:09;12.00;99.90
50556;DHT22;36508;52.512;13.450;2023-10-09T01:05:49;12.10;99.90
50556;DHT22;36508;52.512;13.450;2023-10-09T01:08:39;12.00;99.90
50556;DHT22;36508;52.512;13.450;2023-10-09T01:11:12;12.00;99.90
50556;DHT22;36508;52.512;13.450;2023-10-09T01:13:45;12.10;99.90
50556;DHT22;36508;52.512;13.450;2023-10-09T01:16:14;12.10;99.90
50556;DHT22;36508;52.512;13.450;2023-10-09T01:18:43;12.00;99.90
50556;DHT22;36508;52.512;13.450;2023-10-09T01:21:12;12.10;99.90
50556;DHT22;36508;52.512;13.450;2023-10-09T01:23:44;12.10;99.90
50556;DHT22;36508;52.512;13.450;2023-10-09T01:26:31;12.20;99.90
50556;DHT22;36508;52.512;13.450;2023-10-09T01:29:00;12.10;99.90
50556;DHT22;36508;52.512;13.450;2023-10-09T01:31:27;12.10;99.90
50556;DHT22;36508;52.512;13.450;2023-10-09T01:33:53;12.20;99.90
50556;DHT22;36508;52.512;13.450;2023-10-09T01:36:19;12.30;99.90
50556;DHT22;36508;52.512;13.450;2023-10-09T01:39:00;12.30;99.90
50556;DHT22;36508;52.512;13.450;2023-10-09T01:41:33;12.30;99.90
50556;DHT22;36508;52.512;13.450;2023-10-09T01:43:59;12.30;99.90
50556;DHT22;36508;52.512;13.450;2023-10-09T01:46:35;12.40;99.90
50556;DHT22;36508;52.512;13.450;2023-10-09T01:49:01;12.30;99.90
50556;DHT22;36508;52.512;13.450;2023-10-09T01:51:33;12.40;99.90
50556;DHT22;36508;52.512;13.450;2023-10-09T01:54:02;12.40;99.90
50556;DHT22;36508;52.512;13.450;2023-10-09T01:56:28;12.40;99.90
50556;DHT22;36508;52.512;13.450;2023-10-09T01:58:53;12.40;99.90
50556;DHT22;36508;52.512;13.450;2023-10-09T02:01:23;12.30;99.90
50556;DHT22;36508;52.512;13.450;2023-10-09T02:03:49;12.20;99.90
50556;DHT22;36508;52.512;13.450;2023-10-09T02:06:17;12.20;99.90
50556;DHT22;36508;52.512;13.450;2023-10-09T02:08:53;12.20;99.90
50556;DHT22;36508;52.512;13.450;2023-10-09T02:11:19;11.80;99.90
50556;DHT22;36508;52.512;13.450;2023-10-09T02:14:01;11.80;99.90
50556;DHT22;36508;52.512;13.450;2023-10-09T02:16:27;11.90;99.90
50556;DHT22;36508;52.512;13.450;2023-10-09T02:19:07;11.90;99.90
50556;DHT22;36508;52.512;13.450;2023-10-09T02:21:33;11.90;99.90
50556;DHT22;36508;52.512;13.450;2023-10-09T02:24:05;11.90;99.90
50556;DHT22;36508;52.512;13.450;2023-10-09T02:26:33;11.80;99.90
50556;DHT22;36508;52.512;13.450;2023-10-09T02:29:25;11.40;99.90
50556;DHT22;36508;52.512;13.450;2023-10-09T02:31:52;11.30;99.90
50556;DHT22;36508;52.512;13.450;2023-10-09T02:34:18;11.20;99.90
50556;DHT22;36508;52.512;13.450;2023-10-09T02:36:53;11.40;99.90
50556;DHT22;36508;52.512;13.450;2023-10-09T02:39:31;11.60;99.90
50556;DHT22;36508;52.512;13.450;2023-10-09T02:42:02;11.60;99.90
50556;DHT22;36508;52.512;13.450;2023-10-09T02:44:49;11.50;99.90
50556;DHT22;36508;52.512;13.450;2023-10-09T02:47:17;11.00;99.90
50556;DHT22;36508;52.512;13.450;2023-10-09T02:49:50;11.10;99.90
50556;DHT22;36508;52.512;13.450;2023-10-09T02:52:19;11.20;99.90
50556;DHT22;36508;52.512;13.450;2023-10-09T02:54:45;11.20;99.90
50556;DHT22;36508;52.512;13.450;2023-10-09T02:57:12;11.10;99.90
50556;DHT22;36508;52.512;13.450;2023-10-09T02:59:53;11.30;99.90
50556;DHT22;36508;52.512;13.450;2023-10-09T03:02:19;11.30;99.90
50556;DHT22;36508;52.512;13.450;2023-10-09T03:04:45;11.40;99.90
50556;DHT22;36508;52.512;13.450;2023-10-09T03:07:10;11.50;99.90
50556;DHT22;36508;52.512;13.450;2023-10-09T03:09:39;11.50;99.90
50556;DHT22;36508;52.512;13.450;2023-10-09T03:12:06;11.50;99.90
50556;DHT22;36508;52.512;13.450;2023-10-09T03:14:37;11.50;99.90
50556;DHT22;36508;52.512;13.450;2023-10-09T03:17:06;11.50;99.90
50556;DHT22;36508;52.512;13.450;2023-10-09T03:19:36;11.50;99.90
50556;DHT22;36508;52.512;13.450;2023-10-09T03:22:06;11.50;99.90
50556;DHT22;36508;52.512;13.450;2023-10-09T03:24:36;11.40;99.90
50556;DHT22;36508;52.512;13.450;2023-10-09T03:27:04;11.50;99.90
50556;DHT22;36508;52.512;13.450;2023-10-09T03:32:09;11.30;99.90
50556;DHT22;36508;52.512;13.450;2023-10-09T03:34:34;11.40;99.90
50556;DHT22;36508;52.512;13.450;2023-10-09T03:37:00;11.40;99.90
50556;DHT22;36508;52.512;13.450;2023-10-09T03:39:46;11.50;99.90
50556;DHT22;36508;52.512;13.450;2023-10-09T03:42:17;11.50;99.90
50556;DHT22;36508;52.512;13.450;2023-10-09T03:44:46;11.50;99.90
50556;DHT22;36508;52.512;13.450;2023-10-09T03:47:18;11.40;99.90
50556;DHT22;36508;52.512;13.450;2023-10-09T03:49:50;11.40;99.90
50556;DHT22;36508;52.512;13.450;2023-10-09T03:52:17;11.40;99.90
50556;DHT22;36508;52.512;13.450;2023-10-09T03:54:46;11.50;99.90
50556;DHT22;36508;52.512;13.450;2023-10-09T03:57:13;11.50;99.90
50556;DHT22;36508;52.512;13.450;2023-10-09T03:59:47;11.40;99.90
50556;DHT22;36508;52.512;13.450;2023-10-09T04:02:14;11.40;99.90
50556;DHT22;36508;52.512;13.450;2023-10-09T04:04:40;11.50;99.90
50556;DHT22;36508;52.512;13.450;2023-10-09T04:07:12;11.50;99.90
50556;DHT22;36508;52.512;13.450;2023-10-09T04:09:38;11.40;99.90
50556;DHT22;36508;52.512;13.450;2023-10-09T04:12:10;11.40;99.90
50556;DHT22;36508;52.512;13.450;2023-10-09T04:14:42;11.20;99.90
50556;DHT22;36508;52.512;13.450;2023-10-09T04:17:33;11.30;99.90
50556;DHT22;36508;52.512;13.450;2023-10-09T04:20:01;11.40;99.90
50556;DHT22;36508;52.512;13.450;2023-10-09T04:22:45;11.50;99.90
50556;DHT22;36508;52.512;13.450;2023-10-09T04:25:24;11.60;99.90
50556;DHT22;36508;52.512;13.450;2023-10-09T04:30:22;11.60;99.90
50556;DHT22;36508;52.512;13.450;2023-10-09T04:32:49;11.60;99.90
50556;DHT22;36508;52.512;13.450;2023-10-09T04:35:15;11.50;99.90
50556;DHT22;36508;52.512;13.450;2023-10-09T04:37:50;11.50;99.90
50556;DHT22;36508;52.512;13.450;2023-10-09T04:40:28;11.40;99.90
50556;DHT22;36508;52.512;13.450;2023-10-09T04:43:13;11.50;99.90
50556;DHT22;36508;52.512;13.450;2023-10-09T04:45:47;11.50;99.90
50556;DHT22;36508;52.512;13.450;2023-10-09T04:48:32;11.50;99.90
50556;DHT22;36508;52.512;13.450;2023-10-09T04:51:01;11.50;99.90
50556;DHT22;36508;52.512;13.450;2023-10-09T04:53:46;11.50;99.90
50556;DHT22;36508;52.512;13.450;2023-10-09T04:56:34;11.50;99.90
50556;DHT22;36508;52.512;13.450;2023-10-09T04:59:19;11.50;99.90
50556;DHT22;36508;52.512;13.450;2023-10-09T05:01:50;11.50;99.90
50556;DHT22;36508;52.512;13.450;2023-10-09T05:04:24;11.60;99.90
50556;DHT22;36508;52.512;13.450;2023-10-09T05:07:05;11.50;99.90
50556;DHT22;36508;52.512;13.450;2023-10-09T05:09:49;11.50;99.90
50556;DHT22;36508;52.512;13.450;2023-10-09T05:12:21;11.50;99.90
50556;DHT22;36508;52.512;13.450;2023-10-09T05:14:52;11.50;99.90
50556;DHT22;36508;52.512;13.450;2023-10-09T05:17:35;11.60;99.90
50556;DHT22;36508;52.512;13.450;2023-10-09T05:20:02;11.60;99.90
50556;DHT22;36508;52.512;13.450;2023-10-09T05:22:46;11.60;99.90
50556;DHT22;36508;52.512;13.450;2023-10-09T05:25:23;11.50;99.90
50556;DHT22;36508;52.512;13.450;2023-10-09T05:28:09;11.50;99.90
50556;DHT22;36508;52.512;13.450;2023-10-09T05:30:54;11.50;99.90
50556;DHT22;36508;52.512;13.450;2023-10-09T05:33:34;11.40;99.90
50556;DHT22;36508;52.512;13.450;2023-10-09T05:36:03;11.50;99.90
50556;DHT22;36508;52.512;13.450;2023-10-09T05:38:48;11.50;99.90
50556;DHT22;36508;52.512;13.450;2023-10-09T05:41:24;11.40;99.90
50556;DHT22;36508;52.512;13.450;2023-10-09T05:44:08;11.40;99.90
50556;DHT22;36508;52.512;13.450;2023-10-09T05:46:52;11.40;99.90
50556;DHT22;36508;52.512;13.450;2023-10-09T05:49:37;11.50;99.90
50556;DHT22;36508;52.512;13.450;2023-10-09T05:52:12;11.30;99.90
50556;DHT22;36508;52.512;13.450;2023-10-09T05:55:08;11.40;99.90
50556;DHT22;36508;52.512;13.450;2023-10-09T05:58:05;11.40;99.90
50556;DHT22;36508;52.512;13.450;2023-10-09T06:00:50;11.30;99.90
50556;DHT22;36508;52.512;13.450;2023-10-09T06:03:35;11.40;99.90
50556;DHT22;36508;52.512;13.450;2023-10-09T06:06:35;11.40;99.90
50556;DHT22;36508;52.512;13.450;2023-10-09T06:09:13;11.50;99.90
50556;DHT22;36508;52.512;13.450;2023-10-09T06:11:39;11.50;99.90
50556;DHT22;36508;52.512;13.450;2023-10-09T06:14:05;11.60;99.90
50556;DHT22;36508;52.512;13.450;2023-10-09T06:16:37;11.50;99.90
50556;DHT22;36508;52.512;13.450;2023-10-09T06:19:21;11.50;99.90
50556;DHT22;36508;52.512;13.450;2023-10-09T06:21:47;11.50;99.90
50556;DHT22;36508;52.512;13.450;2023-10-09T06:24:19;11.50;99.90
50556;DHT22;36508;52.512;13.450;2023-10-09T06:26:46;11.50;99.90
50556;DHT22;36508;52.512;13.450;2023-10-09T06:29:27;11.60;99.90
50556;DHT22;36508;52.512;13.450;2023-10-09T06:32:04;11.60;99.90
50556;DHT22;36508;52.512;13.450;2023-10-09T06:35:00;11.60;99.90
50556;DHT22;36508;52.512;13.450;2023-10-09T06:37:50;11.50;99.90
50556;DHT22;36508;52.512;13.450;2023-10-09T06:43:12;11.40;99.90
50556;DHT22;36508;52.512;13.450;2023-10-09T06:45:50;11.50;99.90
50556;DHT22;36508;52.512;13.450;2023-10-09T06:48:42;11.50;99.90
50556;DHT22;36508;52.512;13.450;2023-10-09T06:51:12;11.60;99.90
50556;DHT22;36508;52.512;13.450;2023-10-09T06:53:53;11.70;99.90
50556;DHT22;36508;52.512;13.450;2023-10-09T06:56:26;11.70;99.90
50556;DHT22;36508;52.512;13.450;2023-10-09T06:58:59;11.70;99.90
50556;DHT22;36508;52.512;13.450;2023-10-09T07:01:29;11.70;99.90
50556;DHT22;36508;52.512;13.450;2023-10-09T07:04:08;11.80;99.90
50556;DHT22;36508;52.512;13.450;2023-10-09T07:06:52;12.00;99.90
50556;DHT22;36508;52.512;13.450;2023-10-09T07:09:18;11.90;99.90
50556;DHT22;36508;52.512;13.450;2023-10-09T07:11:50;11.90;99.90
50556;DHT22;36508;52.512;13.450;2023-10-09T07:14:21;12.00;99.90
50556;DHT22;36508;52.512;13.450;2023-10-09T07:17:03;12.00;99.90
50556;DHT22;36508;52.512;13.450;2023-10-09T07:19:49;12.00;99.90
50556;DHT22;36508;52.512;13.450;2023-10-09T07:22:15;12.10;99.90
50556;DHT22;36508;52.512;13.450;2023-10-09T07:24:50;12.10;99.90
50556;DHT22;36508;52.512;13.450;2023-10-09T07:27:23;12.30;99.90
50556;DHT22;36508;52.512;13.450;2023-10-09T07:30:08;12.30;99.90
50556;DHT22;36508;52.512;13.450;2023-10-09T07:32:56;12.30;99.90
50556;DHT22;36508;52.512;13.450;2023-10-09T07:35:31;12.40;99.90
50556;DHT22;36508;52.512;13.450;2023-10-09T07:38:17;12.40;99.90
50556;DHT22;36508;52.512;13.450;2023-10-09T07:40:45;12.40;99.90
50556;DHT22;36508;52.512;13.450;2023-10-09T07:43:22;12.10;99.90
50556;DHT22;36508;52.512;13.450;2023-10-09T07:46:02;12.20;99.90
50556;DHT22;36508;52.512;13.450;2023-10-09T07:48:27;12.20;99.90
50556;DHT22;36508;52.512;13.450;2023-10-09T07:51:11;12.20;99.90
50556;DHT22;36508;52.512;13.450;2023-10-09T07:53:36;12.30;99.90
50556;DHT22;36508;52.512;13.450;2023-10-09T07:56:08;12.20;99.90
50556;DHT22;36508;52.512;13.450;2023-10-09T07:58:34;12.00;99.90
50556;DHT22;36508;52.512;13.450;2023-10-09T08:01:11;12.10;99.90
50556;DHT22;36508;52.512;13.450;2023-10-09T08:04:01;12.30;99.90
50556;DHT22;36508;52.512;13.450;2023-10-09T08:06:37;12.40;99.90
50556;DHT22;36508;52.512;13.450;2023-10-09T08:11:35;12.50;99.90
50556;DHT22;36508;52.512;13.450;2023-10-09T08:14:19;12.50;99.90
50556;DHT22;36508;52.512;13.450;2023-10-09T08:17:00;12.50;99.90
50556;DHT22;36508;52.512;13.450;2023-10-09T08:19:48;12.50;99.90
50556;DHT22;36508;52.512;13.450;2023-10-09T08:22:28;12.60;99.90
50556;DHT22;36508;52.512;13.450;2023-10-09T08:25:04;12.60;99.90
50556;DHT22;36508;52.512;13.450;2023-10-09T08:27:30;12.70;99.90
50556;DHT22;36508;52.512;13.450;2023-10-09T08:30:00;12.60;99.90
50556;DHT22;36508;52.512;13.450;2023-10-09T08:32:48;12.60;99.90
50556;DHT22;36508;52.512;13.450;2023-10-09T08:35:38;12.60;99.90
50556;DHT22;36508;52.512;13.450;2023-10-09T08:38:13;12.60;99.90
50556;DHT22;36508;52.512;13.450;2023-10-09T08:40:43;12.60;99.90
50556;DHT22;36508;52.512;13.450;2023-10-09T08:43:15;12.50;99.90
50556;DHT22;36508;52.512;13.450;2023-10-09T08:45:45;12.40;99.90
50556;DHT22;36508;52.512;13.450;2023-10-09T08:48:19;12.50;99.90
50556;DHT22;36508;52.512;13.450;2023-10-09T08:51:04;12.50;99.90
50556;DHT22;36508;52.512;13.450;2023-10-09T08:53:31;12.50;99.90
50556;DHT22;36508;52.512;13.450;2023-10-09T08:55:58;12.60;99.90
50556;DHT22;36508;52.512;13.450;2023-10-09T08:58:24;12.60;99.90
50556;DHT22;36508;52.512;13.450;2023-10-09T09:01:02;12.50;99.90
50556;DHT22;36508;52.512;13.450;2023-10-09T09:03:38;12.60;99.90
50556;DHT22;36508;52.512;13.450;2023-10-09T09:06:05;12.60;99.90
50556;DHT22;36508;52.512;13.450;2023-10-09T09:08:32;12.70;99.90
50556;DHT22;36508;52.512;13.450;2023-10-09T09:11:09;12.80;99.90
50556;DHT22;36508;52.512;13.450;2023-10-09T09:13:41;12.70;99.90
50556;DHT22;36508;52.512;13.450;2023-10-09T09:18:57;12.90;99.90
50556;DHT22;36508;52.512;13.450;2023-10-09T09:21:27;12.90;99.90
50556;DHT22;36508;52.512;13.450;2023-10-09T09:23:55;13.00;99.90
50556;DHT22;36508;52.512;13.450;2023-10-09T09:26:39;13.00;99.90
50556;DHT22;36508;52.512;13.450;2023-10-09T09:29:11;13.10;99.90
50556;DHT22;36508;52.512;13.450;2023-10-09T09:31:37;13.20;99.90
50556;DHT22;36508;52.512;13.450;2023-10-09T09:34:07;13.30;99.90
50556;DHT22;36508;52.512;13.450;2023-10-09T09:36:57;13.30;99.90
50556;DHT22;36508;52.512;13.450;2023-10-09T09:39:26;13.20;99.90
50556;DHT22;36508;52.512;13.450;2023-10-09T09:41:58;13.20;99.90
50556;DHT22;36508;52.512;13.450;2023-10-09T09:44:30;13.20;99.90
50556;DHT22;36508;52.512;13.450;2023-10-09T09:47:00;13.10;99.90
50556;DHT22;36508;52.512;13.450;2023-10-09T09:49:30;13.10;99.90
50556;DHT22;36508;52.512;13.450;2023-10-09T09:52:06;13.00;99.90
50556;DHT22;36508;52.512;13.450;2023-10-09T09:54:39;12.90;99.90
50556;DHT22;36508;52.512;13.450;2023-10-09T09:57:07;12.80;99.90
50556;DHT22;36508;52.512;13.450;2023-10-09T09:59:41;12.80;99.90
50556;DHT22;36508;52.512;13.450;2023-10-09T10:02:21;12.90;99.90
50556;DHT22;36508;52.512;13.450;2023-10-09T10:04:53;13.00;99.90
50556;DHT22;36508;52.512;13.450;2023-10-09T10:07:20;13.10;99.90
50556;DHT22;36508;52.512;13.450;2023-10-09T10:09:47;13.10;99.90
50556;DHT22;36508;52.512;13.450;2023-10-09T10:12:15;13.10;99.90
50556;DHT22;36508;52.512;13.450;2023-10-09T10:15:00;13.00;99.90
50556;DHT22;36508;52.512;13.450;2023-10-09T10:20:25;13.00;99.90
50556;DHT22;36508;52.512;13.450;2023-10-09T10:23:14;12.90;99.90
50556;DHT22;36508;52.512;13.450;2023-10-09T10:25:43;12.80;99.90
50556;DHT22;36508;52.512;13.450;2023-10-09T10:28:17;12.90;99.90
50556;DHT22;36508;52.512;13.450;2023-10-09T10:30:57;13.00;99.90
50556;DHT22;36508;52.512;13.450;2023-10-09T10:33:26;13.10;99.90
50556;DHT22;36508;52.512;13.450;2023-10-09T10:35:52;13.20;99.90
50556;DHT22;36508;52.512;13.450;2023-10-09T10:41:13;13.20;99.90
50556;DHT22;36508;52.512;13.450;2023-10-09T10:43:42;13.20;99.90
50556;DHT22;36508;52.512;13.450;2023-10-09T10:46:21;12.90;99.90
50556;DHT22;36508;52.512;13.450;2023-10-09T10:48:56;12.90;99.90
50556;DHT22;36508;52.512;13.450;2023-10-09T10:53:54;13.10;99.90
50556;DHT22;36508;52.512;13.450;2023-10-09T10:56:39;13.20;99.90
50556;DHT22;36508;52.512;13.450;2023-10-09T10:59:10;13.30;99.90
50556;DHT22;36508;52.512;13.450;2023-10-09T11:01:36;13.40;99.90
50556;DHT22;36508;52.512;13.450;2023-10-09T11:04:22;13.60;99.90
50556;DHT22;36508;52.512;13.450;2023-10-09T11:06:53;13.70;99.90
50556;DHT22;36508;52.512;13.450;2023-10-09T11:09:25;13.60;99.90
50556;DHT22;36508;52.512;13.450;2023-10-09T11:12:05;13.50;99.90
50556;DHT22;36508;52.512;13.450;2023-10-09T11:14:48;13.70;99.90
50556;DHT22;36508;52.512;13.450;2023-10-09T11:17:36;13.90;99.90
50556;DHT22;36508;52.512;13.450;2023-10-09T11:20:05;13.90;99.90
50556;DHT22;36508;52.512;13.450;2023-10-09T11:22:49;13.80;99.90
50556;DHT22;36508;52.512;13.450;2023-10-09T11:25:34;13.60;99.90
50556;DHT22;36508;52.512;13.450;2023-10-09T11:28:01;13.70;99.90
50556;DHT22;36508;52.512;13.450;2023-10-09T11:30:46;13.80;99.90
50556;DHT22;36508;52.512;13.450;2023-10-09T11:33:12;13.80;99.90
50556;DHT22;36508;52.512;13.450;2023-10-09T11:35:41;13.70;99.90
50556;DHT22;36508;52.512;13.450;2023-10-09T11:38:09;13.50;99.90
50556;DHT22;36508;52.512;13.450;2023-10-09T11:40:47;13.10;99.90
50556;DHT22;36508;52.512;13.450;2023-10-09T11:43:19;13.30;99.90
50556;DHT22;36508;52.512;13.450;2023-10-09T11:46:11;13.50;99.90
50556;DHT22;36508;52.512;13.450;2023-10-09T11:48:37;13.80;99.90
50556;DHT22;36508;52.512;13.450;2023-10-09T11:51:22;14.30;99.90
50556;DHT22;36508;52.512;13.450;2023-10-09T11:53:48;14.10;99.90
50556;DHT22;36508;52.512;13.450;2023-10-09T11:56:22;14.60;99.90
50556;DHT22;36508;52.512;13.450;2023-10-09T11:58:48;14.80;99.90
50556;DHT22;36508;52.512;13.450;2023-10-09T12:01:16;15.00;99.90
50556;DHT22;36508;52.512;13.450;2023-10-09T12:03:43;14.60;99.90
50556;DHT22;36508;52.512;13.450;2023-10-09T12:06:15;14.10;99.90
50556;DHT22;36508;52.512;13.450;2023-10-09T12:08:44;13.90;99.90
50556;DHT22;36508;52.512;13.450;2023-10-09T12:11:12;14.10;99.90
50556;DHT22;36508;52.512;13.450;2023-10-09T12:13:40;14.20;99.90
50556;DHT22;36508;52.512;13.450;2023-10-09T12:16:08;14.30;99.90
50556;DHT22;36508;52.512;13.450;2023-10-09T12:18:37;14.50;99.90
50556;DHT22;36508;52.512;13.450;2023-10-09T12:21:05;14.70;99.90
50556;DHT22;36508;52.512;13.450;2023-10-09T12:23:32;14.90;99.90
50556;DHT22;36508;52.512;13.450;2023-10-09T12:26:04;14.90;99.90
50556;DHT22;36508;52.512;13.450;2023-10-09T12:28:30;14.70;99.90
50556;DHT22;36508;52.512;13.450;2023-10-09T12:30:58;14.60;99.90
50556;DHT22;36508;52.512;13.450;2023-10-09T12:33:27;14.60;99.90
50556;DHT22;36508;52.512;13.450;2023-10-09T12:35:54;14.40;99.90
50556;DHT22;36508;52.512;13.450;2023-10-09T12:38:29;14.30;99.90
50556;DHT22;36508;52.512;13.450;2023-10-09T12:41:05;14.30;99.90
50556;DHT22;36508;52.512;13.450;2023-10-09T12:43:41;14.30;99.90
50556;DHT22;36508;52.512;13.450;2023-10-09T12:46:08;14.00;99.90
50556;DHT22;36508;52.512;13.450;2023-10-09T12:48:34;13.90;99.90
50556;DHT22;36508;52.512;13.450;2023-10-09T12:51:01;13.70;99.90
50556;DHT22;36508;52.512;13.450;2023-10-09T12:53:34;13.80;99.90
50556;DHT22;36508;52.512;13.450;2023-10-09T12:56:00;13.90;99.90
50556;DHT22;36508;52.512;13.450;2023-10-09T12:58:25;13.60;99.90
50556;DHT22;36508;52.512;13.450;2023-10-09T13:00:52;13.60;99.90
50556;DHT22;36508;52.512;13.450;2023-10-09T13:03:18;13.70;99.90
50556;DHT22;36508;52.512;13.450;2023-10-09T13:10:53;13.60;99.90
50556;DHT22;36508;52.512;13.450;2023-10-09T13:13:28;13.20;99.90
50556;DHT22;36508;52.512;13.450;2023-10-09T13:16:07;13.10;99.90
50556;DHT22;36508;52.512;13.450;2023-10-09T13:18:34;12.80;99.90
50556;DHT22;36508;52.512;13.450;2023-10-09T13:21:00;12.90;99.90
50556;DHT22;36508;52.512;13.450;2023-10-09T13:25:58;12.80;99.90
50556;DHT22;36508;52.512;13.450;2023-10-09T13:28:31;12.70;99.90
50556;DHT22;36508;52.512;13.450;2023-10-09T13:30:57;12.70;99.90
50556;DHT22;36508;52.512;13.450;2023-10-09T13:33:23;12.70;99.90
50556;DHT22;36508;52.512;13.450;2023-10-09T13:35:48;13.00;99.90
50556;DHT22;36508;52.512;13.450;2023-10-09T13:38:16;13.10;99.90
50556;DHT22;36508;52.512;13.450;2023-10-09T13:40:42;13.30;99.90
50556;DHT22;36508;52.512;13.450;2023-10-09T13:43:07;13.30;99.90
50556;DHT22;36508;52.512;13.450;2023-10-09T13:45:41;13.10;99.90
50556;DHT22;36508;52.512;13.450;2023-10-09T13:48:14;13.20;99.90
50556;DHT22;36508;52.512;13.450;2023-10-09T13:50:43;13.30;99.90
50556;DHT22;36508;52.512;13.450;2023-10-09T13:53:09;13.40;99.90
50556;DHT22;36508;52.512;13.450;2023-10-09T13:55:37;13.40;99.90
50556;DHT22;36508;52.512;13.450;2023-10-09T13:58:09;13.40;99.90
50556;DHT22;36508;52.512;13.450;2023-10-09T14:00:39;13.30;99.90
50556;DHT22;36508;52.512;13.450;2023-10-09T14:03:08;13.20;99.90
50556;DHT22;36508;52.512;13.450;2023-10-09T14:05:40;13.40;99.90
50556;DHT22;36508;52.512;13.450;2023-10-09T14:08:23;13.50;99.90
50556;DHT22;36508;52.512;13.450;2023-10-09T14:10:51;13.50;99.90
50556;DHT22;36508;52.512;13.450;2023-10-09T14:13:16;13.60;99.90
50556;DHT22;36508;52.512;13.450;2023-10-09T14:15:52;13.60;99.90
50556;DHT22;36508;52.512;13.450;2023-10-09T14:18:19;13.50;99.90
50556;DHT22;36508;52.512;13.450;2023-10-09T14:20:45;13.50;99.90
50556;DHT22;36508;52.512;13.450;2023-10-09T14:23:12;13.50;99.90
50556;DHT22;36508;52.512;13.450;2023-10-09T14:25:46;13.50;99.90
50556;DHT22;36508;52.512;13.450;2023-10-09T14:28:15;13.50;99.90
50556;DHT22;36508;52.512;13.450;2023-10-09T14:30:44;13.10;99.90
50556;DHT22;36508;52.512;13.450;2023-10-09T14:33:11;13.30;99.90
50556;DHT22;36508;52.512;13.450;2023-10-09T14:35:41;13.40;99.90
50556;DHT22;36508;52.512;13.450;2023-10-09T14:38:08;13.50;99.90
50556;DHT22;36508;52.512;13.450;2023-10-09T14:40:41;13.60;99.90
50556;DHT22;36508;52.512;13.450;2023-10-09T14:43:08;13.50;99.90
50556;DHT22;36508;52.512;13.450;2023-10-09T14:45:37;13.40;99.90
50556;DHT22;36508;52.512;13.450;2023-10-09T14:48:03;13.40;99.90
50556;DHT22;36508;52.512;13.450;2023-10-09T14:50:28;13.50;99.90
50556;DHT22;36508;52.512;13.450;2023-10-09T14:52:54;13.50;99.90
50556;DHT22;36508;52.512;13.450;2023-10-09T14:55:19;13.50;99.90
50556;DHT22;36508;52.512;13.450;2023-10-09T14:57:54;13.60;99.90
50556;DHT22;36508;52.512;13.450;2023-10-09T15:00:20;13.40;99.90
50556;DHT22;36508;52.512;13.450;2023-10-09T15:02:49;13.50;99.90
50556;DHT22;36508;52.512;13.450;2023-10-09T15:05:16;13.50;99.90
50556;DHT22;36508;52.512;13.450;2023-10-09T15:07:42;13.50;99.90
50556;DHT22;36508;52.512;13.450;2023-10-09T15:10:08;13.60;99.90
50556;DHT22;36508;52.512;13.450;2023-10-09T15:12:35;13.40;99.90
50556;DHT22;36508;52.512;13.450;2023-10-09T15:15:06;13.30;99.90
50556;DHT22;36508;52.512;13.450;2023-10-09T15:17:42;13.40;99.90
50556;DHT22;36508;52.512;13.450;2023-10-09T15:20:14;13.50;99.90
50556;DHT22;36508;52.512;13.450;2023-10-09T15:22:43;13.50;99.90
50556;DHT22;36508;52.512;13.450;2023-10-09T15:25:10;13.50;99.90
50556;DHT22;36508;52.512;13.450;2023-10-09T15:27:40;13.60;99.90
50556;DHT22;36508;52.512;13.450;2023-10-09T15:30:07;13.40;99.90
50556;DHT22;36508;52.512;13.450;2023-10-09T15:32:40;13.20;99.90
50556;DHT22;36508;52.512;13.450;2023-10-09T15:35:07;13.10;99.90
50556;DHT22;36508;52.512;13.450;2023-10-09T15:37:38;13.20;99.90
50556;DHT22;36508;52.512;13.450;2023-10-09T15:40:06;13.30;99.90
50556;DHT22;36508;52.512;13.450;2023-10-09T15:42:40;13.40;99.90
50556;DHT22;36508;52.512;13.450;2023-10-09T15:45:06;13.30;99.90
50556;DHT22;36508;52.512;13.450;2023-10-09T15:47:32;13.20;99.90
50556;DHT22;36508;52.512;13.450;2023-10-09T15:50:02;13.20;99.90
50556;DHT22;36508;52.512;13.450;2023-10-09T15:52:34;13.30;99.90
50556;DHT22;36508;52.512;13.450;2023-10-09T15:55:00;13.40;99.90
50556;DHT22;36508;52.512;13.450;2023-10-09T15:57:26;12.90;99.90
50556;DHT22;36508;52.512;13.450;2023-10-09T15:59:52;12.70;99.90
50556;DHT22;36508;52.512;13.450;2023-10-09T16:02:18;12.70;99.90
50556;DHT22;36508;52.512;13.450;2023-10-09T16:04:44;12.70;99.90
50556;DHT22;36508;52.512;13.450;2023-10-09T16:07:10;12.90;99.90
50556;DHT22;36508;52.512;13.450;2023-10-09T16:09:36;13.00;99.90
50556;DHT22;36508;52.512;13.450;2023-10-09T16:12:08;12.90;99.90
50556;DHT22;36508;52.512;13.450;2023-10-09T16:14:35;13.00;99.90
50556;DHT22;36508;52.512;13.450;2023-10-09T16:17:02;13.10;99.90
50556;DHT22;36508;52.512;13.450;2023-10-09T16:19:27;13.20;99.90